createdAt,value
2023-04-15T00:02:03.405Z,9.40
2023-04-15T00:04:37.684Z,10.00
2023-04-15T00:07:07.088Z,8.40
2023-04-15T00:09:36.769Z,9.43
2023-04-15T00:12:06.208Z,8.83
2023-04-15T00:14:36.775Z,10.00
2023-04-15T00:17:07.709Z,9.67
2023-04-15T00:19:40.946Z,10.60
2023-04-15T00:22:10.411Z,9.70
2023-04-15T00:24:39.922Z,10.33
2023-04-15T00:27:09.233Z,10.40
2023-04-15T00:29:38.504Z,9.63
2023-04-15T00:32:08.139Z,11.60
2023-04-15T00:34:40.008Z,11.73
2023-04-15T00:37:10.361Z,10.30
2023-04-15T00:39:39.669Z,11.13
2023-04-15T00:42:09.255Z,10.67
2023-04-15T00:44:38.559Z,13.07
2023-04-15T00:47:08.974Z,12.37
2023-04-15T00:49:41.122Z,11.37
2023-04-15T00:52:10.419Z,12.25
2023-04-15T00:54:39.739Z,11.30
2023-04-15T00:57:09.754Z,12.40
2023-04-15T00:59:39.143Z,13.03
2023-04-15T01:02:08.626Z,12.43
2023-04-15T01:04:38.759Z,13.80
2023-04-15T01:07:10.718Z,14.47
2023-04-15T01:09:40.442Z,12.38
2023-04-15T01:12:10.440Z,13.03
2023-04-15T01:14:39.763Z,13.23
2023-04-15T01:17:09.156Z,14.00
2023-04-15T01:19:39.842Z,14.17
2023-04-15T01:22:11.981Z,14.60
2023-04-15T01:24:41.260Z,14.30
2023-04-15T01:27:13.136Z,13.23
2023-04-15T01:29:43.263Z,14.52
2023-04-15T01:32:12.525Z,14.93
2023-04-15T01:34:41.793Z,15.30
2023-04-15T01:37:11.366Z,15.13
2023-04-15T01:39:40.866Z,15.97
2023-04-15T01:42:12.752Z,14.73
2023-04-15T01:44:42.101Z,14.98
2023-04-15T01:47:14.968Z,15.43
2023-04-15T01:49:44.403Z,16.23
2023-04-15T01:52:13.738Z,15.30
2023-04-15T01:54:43.140Z,16.83
2023-04-15T01:57:15.060Z,15.67
2023-04-15T01:59:44.412Z,15.73
2023-04-15T02:02:13.747Z,16.57
2023-04-15T02:04:43.236Z,15.07
2023-04-15T02:07:12.571Z,16.13
2023-04-15T02:09:41.868Z,15.63
2023-04-15T02:12:11.464Z,16.30
2023-04-15T02:14:43.342Z,15.80
2023-04-15T02:17:12.635Z,18.30
2023-04-15T02:19:42.426Z,16.07
2023-04-15T02:22:18.428Z,15.40
2023-04-15T02:24:49.139Z,15.43
2023-04-15T02:27:18.901Z,17.67
2023-04-15T02:29:51.228Z,16.97
2023-04-15T02:32:22.126Z,15.90
2023-04-15T02:34:51.466Z,15.10
2023-04-15T02:37:20.989Z,17.23
2023-04-15T02:39:50.346Z,17.20
2023-04-15T02:42:21.758Z,16.57
2023-04-15T02:44:55.041Z,17.27
2023-04-15T02:47:27.450Z,17.67
2023-04-15T02:49:58.680Z,18.57
2023-04-15T02:52:27.954Z,17.93
2023-04-15T02:55:00.663Z,17.93
2023-04-15T02:57:31.261Z,16.57
2023-04-15T03:00:09.928Z,17.97
2023-04-15T03:02:42.454Z,18.60
2023-04-15T03:05:14.478Z,18.07
2023-04-15T03:07:50.259Z,17.40
2023-04-15T03:10:20.175Z,19.97
2023-04-15T03:12:50.039Z,18.00
2023-04-15T03:15:24.497Z,20.00
2023-04-15T03:17:55.685Z,20.60
2023-04-15T03:20:25.098Z,19.17
2023-04-15T03:22:54.552Z,19.90
2023-04-15T03:25:25.902Z,20.67
2023-04-15T03:27:55.231Z,22.13
2023-04-15T03:30:27.303Z,18.83
2023-04-15T03:32:56.633Z,21.23
2023-04-15T03:35:26.105Z,22.67
2023-04-15T03:37:55.777Z,20.17
2023-04-15T03:40:25.585Z,20.57
2023-04-15T03:42:54.887Z,21.00
2023-04-15T03:45:26.743Z,22.53
2023-04-15T03:47:57.394Z,21.38
2023-04-15T03:50:30.644Z,21.30
2023-04-15T03:52:59.933Z,20.20
2023-04-15T03:55:29.232Z,23.73
2023-04-15T03:57:58.510Z,19.73
2023-04-15T04:00:30.436Z,22.97
2023-04-15T04:02:59.928Z,23.58
2023-04-15T04:05:30.475Z,22.63
2023-04-15T04:07:59.817Z,24.33
2023-04-15T04:10:29.757Z,22.70
2023-04-15T04:12:59.174Z,26.83
2023-04-15T04:15:31.284Z,25.00
2023-04-15T04:18:01.030Z,21.88
2023-04-15T04:20:32.118Z,22.83
2023-04-15T04:23:01.424Z,27.27
2023-04-15T04:25:30.777Z,25.47
2023-04-15T04:28:00.056Z,22.73
2023-04-15T04:30:32.139Z,27.33
2023-04-15T04:33:02.460Z,25.20
2023-04-15T04:35:33.877Z,24.57
2023-04-15T04:38:03.257Z,23.33
2023-04-15T04:40:32.680Z,23.43
2023-04-15T04:43:02.082Z,25.23
2023-04-15T04:45:34.182Z,27.87
2023-04-15T04:48:07.310Z,25.98
2023-04-15T04:50:36.923Z,25.23
2023-04-15T04:53:06.279Z,23.47
2023-04-15T04:55:37.047Z,25.83
2023-04-15T04:58:06.369Z,26.27
2023-04-15T05:00:38.585Z,22.80
2023-04-15T05:03:08.192Z,25.75
2023-04-15T05:05:39.625Z,24.93
2023-04-15T05:08:08.953Z,25.57
2023-04-15T05:10:38.209Z,24.53
2023-04-15T05:13:07.492Z,27.03
2023-04-15T05:15:41.398Z,23.10
2023-04-15T05:18:10.719Z,25.90
2023-04-15T05:20:40.013Z,25.50
2023-04-15T05:23:09.285Z,26.33
2023-04-15T05:25:38.671Z,24.20
2023-04-15T05:28:08.144Z,22.13
2023-04-15T05:30:40.052Z,23.20
2023-04-15T05:33:09.432Z,23.08
2023-04-15T05:35:38.709Z,21.10
2023-04-15T05:38:07.978Z,21.83
2023-04-15T05:40:37.258Z,22.50
2023-04-15T05:43:06.796Z,27.17
2023-04-15T05:45:36.189Z,26.33
2023-04-15T05:48:08.728Z,21.97
2023-04-15T05:53:07.429Z,25.47
2023-04-15T05:55:36.754Z,19.50
2023-04-15T05:58:06.546Z,22.33
2023-04-15T06:00:36.629Z,23.67
2023-04-15T06:03:09.157Z,24.00
2023-04-15T06:05:38.763Z,20.20
2023-04-15T06:08:08.508Z,21.40
2023-04-15T06:10:38.016Z,19.53
2023-04-15T06:13:07.554Z,21.13
2023-04-15T06:15:36.916Z,19.17
2023-04-15T06:18:08.926Z,20.90
2023-04-15T06:20:38.254Z,21.92
2023-04-15T06:23:07.604Z,20.33
2023-04-15T06:25:36.964Z,17.87
2023-04-15T06:28:06.567Z,18.93
2023-04-15T06:30:36.096Z,19.13
2023-04-15T06:33:06.503Z,17.27
2023-04-15T06:35:39.350Z,19.30
2023-04-15T06:38:08.783Z,17.63
2023-04-15T06:40:38.136Z,16.03
2023-04-15T06:43:08.118Z,17.10
2023-04-15T06:45:37.533Z,17.50
2023-04-15T06:48:07.175Z,14.53
2023-04-15T06:50:39.046Z,16.30
2023-04-15T06:53:08.596Z,15.18
2023-04-15T06:55:37.971Z,18.23
2023-04-15T06:58:07.263Z,17.07
2023-04-15T07:00:39.163Z,14.53
2023-04-15T07:03:11.254Z,15.70
2023-04-15T07:05:43.595Z,15.15
2023-04-15T07:08:12.976Z,15.40
2023-04-15T07:10:42.349Z,15.00
2023-04-15T07:13:11.942Z,14.63
2023-04-15T07:15:41.412Z,13.60
2023-04-15T07:18:10.906Z,14.83
2023-04-15T07:20:42.963Z,14.03
2023-04-15T07:23:12.276Z,15.20
2023-04-15T07:25:41.758Z,13.17
2023-04-15T07:28:11.110Z,14.67
2023-04-15T07:30:40.757Z,12.40
2023-04-15T07:33:10.053Z,12.20
2023-04-15T07:35:39.310Z,12.47
2023-04-15T07:38:12.862Z,12.97
2023-04-15T07:40:42.530Z,11.60
2023-04-15T07:43:11.957Z,12.57
2023-04-15T07:45:41.189Z,12.37
2023-04-15T07:48:10.473Z,10.67
2023-04-15T07:50:39.800Z,11.13
2023-04-15T07:53:12.206Z,12.53
2023-04-15T07:55:41.596Z,14.07
2023-04-15T07:58:11.042Z,11.00
2023-04-15T08:00:40.804Z,10.03
2023-04-15T08:03:10.281Z,10.93
2023-04-15T08:05:39.792Z,12.57
2023-04-15T08:08:09.098Z,11.63
2023-04-15T08:10:41.141Z,9.53
2023-04-15T08:13:10.593Z,9.50
2023-04-15T08:15:39.906Z,10.20
2023-04-15T08:18:09.172Z,10.60
2023-04-15T08:20:38.609Z,11.23
2023-04-15T08:23:07.919Z,11.33
2023-04-15T08:25:37.262Z,11.17
2023-04-15T08:28:11.609Z,10.17
2023-04-15T08:30:40.904Z,11.20
2023-04-15T08:33:10.580Z,8.90
2023-04-15T08:35:39.870Z,8.90
2023-04-15T08:38:09.132Z,9.63
2023-04-15T08:40:43.110Z,10.77
2023-04-15T08:43:16.355Z,9.70
2023-04-15T08:45:46.827Z,8.63
2023-04-15T08:48:17.444Z,11.00
2023-04-15T08:50:47.059Z,9.03
2023-04-15T08:53:16.664Z,10.97
2023-04-15T08:55:47.548Z,10.53
2023-04-15T08:58:19.850Z,8.70
2023-04-15T09:00:49.206Z,8.77
2023-04-15T09:03:19.327Z,10.10
2023-04-15T09:05:48.952Z,8.80
2023-04-15T09:08:18.259Z,9.87
2023-04-15T09:10:47.570Z,12.27
2023-04-15T09:13:19.428Z,10.57
2023-04-15T09:15:48.802Z,10.80
2023-04-15T09:18:29.718Z,10.73
2023-04-15T09:20:59.231Z,10.60
2023-04-15T09:23:28.512Z,10.83
2023-04-15T09:25:57.942Z,9.53
2023-04-15T09:28:31.636Z,10.77
2023-04-15T09:31:01.255Z,10.83
2023-04-15T09:33:31.740Z,10.33
2023-04-15T09:36:02.352Z,11.50
2023-04-15T09:38:31.919Z,9.97
2023-04-15T09:41:01.693Z,10.53
2023-04-15T09:43:43.259Z,12.87
2023-04-15T09:46:12.592Z,11.03
2023-04-15T09:48:41.893Z,13.40
2023-04-15T09:51:11.217Z,14.23
2023-04-15T09:53:40.989Z,11.17
2023-04-15T09:56:11.140Z,11.93
2023-04-15T09:58:43.370Z,13.77
2023-04-15T10:01:12.869Z,13.00
2023-04-15T10:03:43.949Z,13.53
2023-04-15T10:06:13.403Z,13.33
2023-04-15T10:08:42.885Z,15.37
2023-04-15T10:11:12.257Z,13.53
2023-04-15T10:13:44.384Z,14.23
2023-04-15T10:16:14.097Z,13.75
2023-04-15T10:18:45.505Z,13.40
2023-04-15T10:21:18.819Z,15.33
2023-04-15T10:23:48.221Z,18.33
2023-04-15T10:26:18.521Z,16.93
2023-04-15T10:28:50.494Z,20.07
2023-04-15T10:31:20.861Z,16.15
2023-04-15T10:33:50.399Z,17.53
2023-04-15T10:36:19.817Z,17.47
2023-04-15T10:38:49.085Z,17.27
2023-04-15T10:41:21.155Z,17.60
2023-04-15T10:43:54.710Z,16.83
2023-04-15T10:46:27.687Z,22.10
2023-04-15T10:48:57.832Z,22.07
2023-04-15T10:51:32.455Z,22.43
2023-04-15T10:54:02.332Z,24.07
2023-04-15T10:56:32.219Z,20.90
2023-04-15T10:59:04.755Z,24.73
2023-04-15T11:02:01.679Z,24.58
2023-04-15T11:04:46.244Z,24.83
2023-04-15T11:07:15.672Z,25.97
2023-04-15T11:09:44.984Z,23.23
2023-04-15T11:12:14.302Z,26.40
2023-04-15T11:14:46.167Z,25.00
2023-04-15T11:17:15.559Z,24.35
2023-04-15T11:19:44.952Z,25.40
2023-04-15T11:22:14.625Z,28.47
2023-04-15T11:24:50.714Z,30.30
2023-04-15T11:27:26.344Z,28.27
2023-04-15T11:29:58.848Z,27.10
2023-04-15T11:32:28.352Z,27.67
2023-04-15T11:34:58.507Z,27.87
2023-04-15T11:37:31.098Z,28.80
2023-04-15T11:40:00.495Z,31.38
2023-04-15T11:42:36.404Z,28.43
2023-04-15T11:45:16.131Z,31.67
2023-04-15T11:47:46.072Z,30.20
2023-04-15T11:50:20.103Z,34.70
2023-04-15T11:52:56.341Z,30.80
2023-04-15T11:55:26.717Z,34.63
2023-04-15T11:58:08.757Z,32.00
2023-04-15T13:39:50.582Z,32.20
2023-04-15T13:47:22.172Z,33.63
2023-04-15T13:49:53.032Z,33.60
2023-04-15T13:52:22.392Z,31.30
2023-04-15T13:55:07.811Z,30.30
2023-04-15T13:57:41.310Z,29.87
2023-04-15T14:00:11.285Z,29.63
2023-04-15T14:02:43.320Z,28.30
2023-04-15T14:05:12.925Z,27.63
2023-04-15T14:07:42.266Z,29.93
2023-04-15T14:10:11.658Z,26.43
2023-04-15T14:12:41.048Z,28.90
2023-04-15T14:15:10.851Z,26.53
2023-04-15T14:17:42.981Z,32.60
2023-04-15T14:20:14.016Z,25.30
2023-04-15T14:22:47.752Z,26.23
2023-04-15T14:25:30.502Z,25.75
2023-04-15T14:28:03.617Z,28.90
2023-04-15T14:30:33.027Z,25.25
2023-04-15T14:33:05.081Z,25.30
2023-04-15T14:35:34.416Z,26.45
2023-04-15T14:38:03.740Z,27.85
2023-04-15T14:40:33.058Z,25.38
2023-04-15T14:43:02.407Z,24.98
2023-04-15T14:45:32.732Z,26.05
2023-04-15T14:48:02.579Z,23.10
2023-04-15T14:50:34.712Z,24.37
2023-04-15T14:53:04.073Z,24.38
2023-04-15T14:55:33.436Z,26.30
2023-04-15T15:15:49.777Z,23.10
2023-04-15T15:55:57.085Z,25.17
2023-04-15T15:58:26.363Z,27.03
2023-04-15T16:00:55.679Z,26.80
2023-04-15T16:03:25.353Z,24.57
2023-04-15T16:05:54.739Z,26.80
2023-04-15T16:08:26.756Z,26.27
2023-04-15T16:10:56.093Z,27.13
2023-04-15T16:13:25.409Z,26.97
2023-04-15T16:15:54.734Z,28.57
2023-04-15T16:18:24.067Z,27.43
2023-04-15T16:20:53.353Z,27.37
2023-04-15T16:23:23.946Z,29.37
2023-04-15T16:25:56.023Z,28.30
2023-04-15T16:28:27.168Z,29.90
2023-04-15T16:30:57.268Z,28.37
2023-04-15T16:33:26.714Z,27.67
2023-04-15T16:35:56.031Z,28.23
2023-04-15T16:38:25.388Z,27.97
2023-04-15T16:40:57.655Z,30.03
2023-04-15T16:43:27.606Z,29.10
2023-04-15T16:45:57.046Z,30.33
2023-04-15T16:48:26.345Z,29.23
2023-04-15T16:50:55.623Z,32.27
2023-04-15T16:53:24.948Z,29.40
2023-04-15T16:55:56.860Z,28.50
2023-04-15T16:58:26.356Z,31.33
2023-04-15T17:00:55.783Z,31.23
2023-04-15T17:03:25.327Z,31.07
2023-04-15T17:05:54.821Z,34.30
2023-04-15T17:08:24.130Z,30.13
2023-04-15T17:10:55.299Z,27.43
2023-04-15T17:13:27.982Z,24.03
2023-04-15T17:18:26.476Z,26.40
2023-04-15T17:20:55.738Z,29.07
2023-04-15T17:23:25.086Z,28.47
2023-04-15T17:25:54.353Z,27.07
2023-04-15T17:28:23.668Z,30.27
2023-04-15T17:30:55.534Z,28.43
2023-04-15T17:33:50.511Z,27.15
2023-04-15T17:36:14.204Z,26.30
2023-04-15T17:38:43.516Z,26.23
2023-04-15T17:41:12.839Z,25.73
2023-04-15T17:43:42.130Z,27.67
2023-04-15T17:46:14.606Z,27.13
2023-04-15T17:48:43.906Z,25.67
2023-04-15T17:51:13.457Z,20.63
2023-04-15T17:53:43.074Z,23.30
2023-04-15T17:56:12.517Z,19.40
2023-04-15T17:58:41.807Z,21.30
2023-04-15T18:01:11.095Z,20.53
2023-04-15T18:03:43.105Z,20.77
2023-04-15T18:06:13.900Z,22.00
2023-04-15T18:08:43.151Z,21.03
2023-04-15T18:11:12.645Z,20.73
2023-04-15T18:13:43.698Z,20.73
2023-04-15T18:16:13.113Z,23.40
2023-04-15T18:18:45.110Z,21.70
2023-04-15T18:21:14.398Z,24.17
2023-04-15T18:23:43.639Z,21.03
2023-04-15T18:26:13.053Z,21.70
2023-04-15T18:28:42.348Z,19.47
2023-04-15T18:31:11.604Z,21.37
2023-04-15T18:33:41.609Z,22.37
2023-04-15T18:36:13.508Z,23.03
2023-04-15T18:38:42.859Z,20.33
2023-04-15T18:41:12.120Z,22.17
2023-04-15T18:43:41.355Z,22.37
2023-04-15T18:46:12.506Z,22.27
2023-04-15T18:48:41.789Z,20.13
2023-04-15T18:51:13.842Z,20.80
2023-04-15T18:53:43.172Z,22.08
2023-04-15T18:59:26.022Z,22.00
2023-04-15T19:01:32.571Z,20.50
2023-04-15T19:04:02.553Z,21.53
2023-04-15T19:06:34.500Z,22.90
2023-04-15T19:09:04.064Z,20.20
2023-04-15T19:11:33.539Z,23.47
2023-04-15T19:14:03.315Z,20.40
2023-04-15T19:16:32.670Z,20.50
2023-04-15T19:19:01.944Z,21.40
2023-04-15T19:21:34.437Z,20.80
2023-04-15T19:24:03.820Z,21.80
2023-04-15T19:26:33.153Z,21.93
2023-04-15T19:29:02.597Z,22.13
2023-04-15T19:31:32.346Z,22.27
2023-04-15T19:34:01.632Z,23.77
2023-04-15T19:36:31.577Z,22.20
2023-04-15T19:39:04.267Z,21.50
2023-04-15T19:41:33.764Z,22.17
2023-04-15T19:44:03.191Z,21.23
2023-04-15T19:46:32.914Z,23.67
2023-04-15T19:49:02.376Z,20.37
2023-04-15T19:51:32.080Z,21.27
2023-04-15T19:54:03.919Z,23.13
2023-04-15T19:56:34.408Z,22.13
2023-04-15T19:59:04.098Z,21.17
2023-04-15T20:01:33.681Z,22.93
2023-04-15T20:04:04.114Z,21.67
2023-04-15T20:06:33.573Z,21.37
2023-04-15T20:09:05.646Z,23.47
2023-04-15T20:12:44.880Z,21.48
2023-04-15T20:14:25.207Z,25.67
2023-04-15T20:16:54.479Z,21.23
2023-04-15T20:19:23.725Z,21.30
2023-04-15T20:21:54.090Z,20.37
2023-04-15T20:24:26.474Z,18.57
2023-04-15T20:26:56.979Z,20.80
2023-04-15T20:29:26.545Z,20.03
2023-04-15T20:31:56.425Z,21.30
2023-04-15T20:34:26.654Z,19.10
2023-04-15T20:36:56.200Z,19.10
2023-04-15T20:39:28.424Z,19.03
2023-04-15T20:41:57.863Z,21.05
2023-04-15T20:44:27.156Z,21.70
2023-04-15T20:46:56.588Z,18.53
2023-04-15T20:49:25.929Z,17.83
2023-04-15T20:51:55.312Z,18.40
2023-04-15T20:54:24.568Z,17.40
2023-04-15T20:56:56.438Z,17.87
2023-04-15T20:59:25.689Z,17.65
2023-04-15T21:01:57.011Z,18.90
2023-04-15T21:04:26.431Z,18.63
2023-04-15T21:06:55.737Z,19.10
2023-04-15T21:09:27.615Z,18.55
2023-04-15T21:12:01.468Z,19.30
2023-04-15T21:14:31.262Z,19.07
2023-04-15T21:17:03.465Z,20.03
2023-04-15T21:19:32.730Z,18.25
2023-04-15T21:22:02.176Z,21.60
2023-04-15T21:24:31.571Z,22.03
2023-04-15T21:27:03.512Z,20.00
2023-04-15T23:09:47.121Z,24.93
2023-04-15T23:12:18.974Z,26.40
